createdAt,value
2022-10-29T00:01:05.667Z,98633.05
2022-10-29T00:03:36.375Z,98634.37
2022-10-29T00:06:07.778Z,98644.80
2022-10-29T00:08:37.598Z,98638.64
2022-10-29T00:11:15.724Z,98642.64
2022-10-29T00:13:43.909Z,98644.25
2022-10-29T00:16:15.533Z,98652.27
2022-10-29T00:18:44.106Z,98644.55
2022-10-29T00:21:18.644Z,98645.60
2022-10-29T00:23:47.162Z,98645.32
2022-10-29T00:26:15.700Z,98641.31
2022-10-29T00:28:43.467Z,98642.92
2022-10-29T00:31:18.408Z,98638.92
2022-10-29T00:33:46.444Z,98638.39
2022-10-29T00:36:19.014Z,98632.51
2022-10-29T00:38:46.734Z,98631.96
2022-10-29T00:41:18.844Z,98623.16
2022-10-29T00:43:50.641Z,98619.94
2022-10-29T00:46:34.002Z,98622.34
2022-10-29T00:49:02.702Z,98632.49
2022-10-29T00:51:32.436Z,98631.18
2022-10-29T00:54:07.904Z,98630.09
2022-10-29T00:56:40.777Z,98627.16
2022-10-29T00:59:09.750Z,98623.68
2022-10-29T01:01:39.233Z,98626.89
2022-10-29T01:04:07.806Z,98627.14
2022-10-29T01:06:35.615Z,98621.28
2022-10-29T01:09:03.585Z,98615.39
2022-10-29T01:12:15.833Z,98613.52
2022-10-29T01:15:06.280Z,98615.39
2022-10-29T01:17:58.994Z,98613.53
2022-10-29T01:20:43.949Z,98610.06
2022-10-29T01:23:19.886Z,98612.98
2022-10-29T01:26:29.089Z,98607.89
2022-10-29T01:29:38.015Z,98610.59
2022-10-29T01:32:16.031Z,98609.23
2022-10-29T01:34:51.884Z,98605.22
2022-10-29T01:37:54.904Z,98605.20
2022-10-29T01:40:42.962Z,98600.39
2022-10-29T01:43:16.257Z,98597.45
2022-10-29T01:45:52.329Z,98595.58
2022-10-29T01:48:29.028Z,98589.44
2022-10-29T01:50:58.039Z,98594.78
2022-10-29T01:53:27.313Z,98591.81
2022-10-29T01:55:54.838Z,98588.36
2022-10-29T01:58:25.157Z,98588.08
2022-10-29T02:01:10.588Z,98586.23
2022-10-29T02:03:54.148Z,98588.91
2022-10-29T02:07:00.270Z,98588.91
2022-10-29T02:09:48.378Z,98588.38
2022-10-29T02:12:21.606Z,98592.64
2022-10-29T02:15:00.624Z,98596.66
2022-10-29T02:17:31.748Z,98589.70
2022-10-29T02:20:08.193Z,98583.31
2022-10-29T02:22:36.048Z,98585.20
2022-10-29T02:25:05.574Z,98586.81
2022-10-29T02:27:33.256Z,98582.27
2022-10-29T02:30:00.863Z,98573.44
2022-10-29T02:32:28.350Z,98575.32
2022-10-29T02:34:56.056Z,98581.44
2022-10-29T02:37:23.691Z,98580.66
2022-10-29T02:39:51.393Z,98583.61
2022-10-29T02:42:18.893Z,98587.33
2022-10-29T02:44:46.439Z,98593.21
2022-10-29T02:47:14.133Z,98587.34
2022-10-29T02:49:41.700Z,98583.33
2022-10-29T02:52:09.328Z,98578.78
2022-10-29T02:54:38.692Z,98579.33
2022-10-29T02:57:06.912Z,98582.25
2022-10-29T02:59:34.534Z,98580.10
2022-10-29T03:02:02.319Z,98580.39
2022-10-29T03:04:29.971Z,98571.83
2022-10-29T03:06:57.681Z,98573.70
2022-10-29T03:09:25.337Z,98573.42
2022-10-29T03:11:53.176Z,98569.95
2022-10-29T03:14:20.928Z,98569.41
2022-10-29T03:16:48.512Z,98577.72
2022-10-29T03:19:16.103Z,98579.31
2022-10-29T03:21:43.862Z,98585.20
2022-10-29T03:24:11.712Z,98586.00
2022-10-29T03:26:39.396Z,98577.45
2022-10-29T03:29:07.244Z,98577.45
2022-10-29T03:31:35.353Z,98571.29
2022-10-29T03:34:03.030Z,98574.77
2022-10-29T03:36:30.762Z,98569.41
2022-10-29T03:38:58.231Z,98575.59
2022-10-29T03:41:25.960Z,98576.10
2022-10-29T03:43:53.694Z,98571.02
2022-10-29T03:46:21.403Z,98569.17
2022-10-29T03:48:50.046Z,98566.50
2022-10-29T03:51:17.614Z,98568.88
2022-10-29T03:53:45.392Z,98563.82
2022-10-29T03:56:13.182Z,98561.14
2022-10-29T03:58:41.068Z,98565.43
2022-10-29T04:01:10.055Z,98562.21
2022-10-29T04:03:41.328Z,98563.03
2022-10-29T04:06:15.328Z,98555.80
2022-10-29T04:08:43.023Z,98556.61
2022-10-29T04:11:14.104Z,98559.27
2022-10-29T04:13:41.852Z,98560.59
2022-10-29T04:16:09.508Z,98555.78
2022-10-29T04:18:38.318Z,98558.19
2022-10-29T04:23:08.067Z,98554.71
2022-10-29T04:26:55.404Z,98569.92
2022-10-29T04:28:42.994Z,98570.45
2022-10-29T04:31:06.864Z,98568.30
2022-10-29T04:33:34.713Z,98562.69
2022-10-29T04:36:03.151Z,98570.72
2022-10-29T04:38:30.704Z,98564.28
2022-10-29T04:40:59.272Z,98572.83
2022-10-29T04:43:27.995Z,98569.64
2022-10-29T04:45:57.950Z,98568.84
2022-10-29T04:48:27.308Z,98573.89
2022-10-29T04:50:55.157Z,98576.02
2022-10-29T04:53:23.114Z,98568.30
2022-10-29T04:55:50.714Z,98572.30
2022-10-29T04:58:19.751Z,98576.29
2022-10-29T05:00:47.785Z,98577.89
2022-10-29T05:03:15.735Z,98577.88
2022-10-29T05:05:43.401Z,98576.81
2022-10-29T05:08:11.723Z,98581.34
2022-10-29T05:10:40.167Z,98577.63
2022-10-29T05:13:11.618Z,98577.91
2022-10-29T05:15:40.372Z,98580.31
2022-10-29T05:18:09.501Z,98585.66
2022-10-29T05:20:37.205Z,98587.28
2022-10-29T05:23:07.487Z,98586.48
2022-10-29T05:25:38.435Z,98586.77
2022-10-29T05:28:11.716Z,98591.57
2022-10-29T05:30:40.991Z,98585.73
2022-10-29T05:33:09.643Z,98586.52
2022-10-29T05:35:38.214Z,98589.75
2022-10-29T05:38:06.362Z,98585.47
2022-10-29T05:40:34.143Z,98576.64
2022-10-29T05:43:02.014Z,98586.53
2022-10-29T05:45:29.829Z,98594.55
2022-10-29T05:48:01.081Z,98597.73
2022-10-29T05:50:30.096Z,98596.64
2022-10-29T05:53:01.349Z,98603.05
2022-10-29T05:55:30.306Z,98597.30
2022-10-29T05:58:04.126Z,98606.95
2022-10-29T06:00:35.372Z,98600.56
2022-10-29T06:03:03.369Z,98602.30
2022-10-29T06:05:31.174Z,98599.85
2022-10-29T06:08:00.712Z,98603.97
2022-10-29T06:10:29.441Z,98607.79
2022-10-29T06:12:57.086Z,98603.91
2022-10-29T06:15:25.066Z,98598.73
2022-10-29T06:17:52.700Z,98599.34
2022-10-29T06:20:21.680Z,98604.22
2022-10-29T06:22:58.070Z,98605.89
2022-10-29T06:25:26.966Z,98612.41
2022-10-29T06:27:59.944Z,98610.90
2022-10-29T06:30:28.851Z,98607.79
2022-10-29T06:32:56.905Z,98605.50
2022-10-29T06:35:27.176Z,98605.56
2022-10-29T06:37:56.271Z,98607.72
2022-10-29T06:40:25.310Z,98621.43
2022-10-29T06:43:05.230Z,98608.91
2022-10-29T06:45:34.472Z,98602.41
2022-10-29T06:48:04.923Z,98599.56
2022-10-29T06:50:34.747Z,98599.63
2022-10-29T06:53:05.920Z,98603.72
2022-10-29T06:55:34.537Z,98603.87
2022-10-29T06:58:09.266Z,98606.84
2022-10-29T07:00:37.060Z,98603.56
2022-10-29T07:03:05.076Z,98603.91
2022-10-29T07:05:33.399Z,98602.09
2022-10-29T07:08:01.998Z,98603.82
2022-10-29T07:10:31.780Z,98601.40
2022-10-29T07:12:59.631Z,98598.28
2022-10-29T07:15:30.818Z,98601.84
2022-10-29T07:18:04.399Z,98603.62
2022-10-29T07:20:35.906Z,98599.17
2022-10-29T07:23:04.157Z,98604.30
2022-10-29T07:25:32.572Z,98605.22
2022-10-29T07:28:19.912Z,98609.06
2022-10-29T07:30:47.961Z,98606.64
2022-10-29T07:33:16.212Z,98606.83
2022-10-29T07:35:44.312Z,98596.45
2022-10-29T07:38:12.838Z,98597.42
2022-10-29T07:40:49.719Z,98597.72
2022-10-29T07:43:18.854Z,98596.21
2022-10-29T07:45:49.488Z,98601.48
2022-10-29T07:48:19.022Z,98595.94
2022-10-29T07:50:47.868Z,98596.84
2022-10-29T07:53:15.645Z,98598.99
2022-10-29T07:55:43.296Z,98606.05
2022-10-29T07:58:12.412Z,98599.67
2022-10-29T08:00:41.816Z,98610.17
2022-10-29T08:03:11.597Z,98605.62
2022-10-29T08:05:42.295Z,98607.27
2022-10-29T08:08:09.266Z,98605.68
2022-10-29T08:10:37.156Z,98606.56
2022-10-29T08:13:06.168Z,98602.50
2022-10-29T08:15:34.919Z,98597.37
2022-10-29T08:18:08.504Z,98600.45
2022-10-29T08:20:36.211Z,98596.06
2022-10-29T08:23:03.837Z,98595.61
2022-10-29T08:25:31.431Z,98590.59
2022-10-29T08:28:02.380Z,98589.88
2022-10-29T08:30:31.169Z,98595.05
2022-10-29T08:32:59.507Z,98593.33
2022-10-29T08:35:28.275Z,98587.59
2022-10-29T08:37:56.042Z,98591.85
2022-10-29T08:40:38.083Z,98589.27
2022-10-29T08:43:44.589Z,98583.92
2022-10-29T08:46:37.358Z,98583.64
2022-10-29T08:49:15.880Z,98587.77
2022-10-29T08:51:48.783Z,98579.89
2022-10-29T08:54:30.203Z,98587.86
2022-10-29T08:56:57.255Z,98574.52
2022-10-29T08:59:29.202Z,98581.34
2022-10-29T09:01:56.901Z,98579.03
2022-10-29T09:04:36.544Z,98575.98
2022-10-29T09:07:33.977Z,98568.44
2022-10-29T09:10:22.059Z,98568.67
2022-10-29T09:13:21.260Z,98566.77
2022-10-29T09:16:12.375Z,98563.91
2022-10-29T09:18:57.154Z,98558.03
2022-10-29T09:21:45.307Z,98560.63
2022-10-29T09:24:45.385Z,98556.52
2022-10-29T09:27:23.963Z,98560.02
2022-10-29T09:30:02.752Z,98558.08
2022-10-29T09:32:35.773Z,98555.35
2022-10-29T09:35:17.657Z,98548.75
2022-10-29T09:37:54.760Z,98546.25
2022-10-29T09:40:35.925Z,98543.05
2022-10-29T09:43:17.687Z,98541.84
2022-10-29T09:45:50.696Z,98539.23
2022-10-29T09:48:23.846Z,98537.30
2022-10-29T09:51:21.373Z,98541.48
2022-10-29T09:53:51.206Z,98531.34
2022-10-29T09:56:19.104Z,98524.41
2022-10-29T09:58:52.104Z,98532.08
2022-10-29T10:01:19.840Z,98532.08
2022-10-29T10:03:52.587Z,98527.90
2022-10-29T10:06:20.309Z,98523.64
2022-10-29T10:09:05.419Z,98524.87
2022-10-29T10:11:42.659Z,98523.39
2022-10-29T10:14:24.664Z,98521.47
2022-10-29T10:17:00.458Z,98515.12
2022-10-29T10:19:31.872Z,98513.70
2022-10-29T10:22:03.206Z,98506.41
2022-10-29T10:24:36.917Z,98505.68
2022-10-29T10:27:27.731Z,98498.34
2022-10-29T10:30:09.785Z,98495.52
2022-10-29T10:32:37.308Z,98491.10
2022-10-29T10:35:25.932Z,98490.23
2022-10-29T10:37:55.133Z,98479.41
2022-10-29T10:40:24.763Z,98477.54
2022-10-29T10:42:54.862Z,98479.44
2022-10-29T10:45:30.874Z,98476.34
2022-10-29T10:47:59.381Z,98475.23
2022-10-29T10:50:30.856Z,98478.74
2022-10-29T10:53:02.117Z,98476.93
2022-10-29T10:55:38.617Z,98477.42
2022-10-29T10:58:26.405Z,98473.20
2022-10-29T11:01:02.934Z,98471.92
2022-10-29T11:03:38.844Z,98469.53
2022-10-29T11:06:26.082Z,98462.80
2022-10-29T11:09:05.142Z,98464.53
2022-10-29T11:11:37.566Z,98459.98
2022-10-29T11:14:28.291Z,98451.39
2022-10-29T11:16:59.405Z,98450.19
2022-10-29T11:19:36.795Z,98440.50
2022-10-29T11:22:22.099Z,98441.48
2022-10-29T11:25:05.975Z,98443.47
2022-10-29T11:27:44.877Z,98434.58
2022-10-29T11:30:18.781Z,98428.31
2022-10-29T11:35:46.589Z,98424.02
2022-10-29T11:38:43.808Z,98413.41
2022-10-29T11:41:42.642Z,98410.16
2022-10-29T11:44:13.343Z,98409.88
2022-10-29T11:46:53.220Z,98407.80
2022-10-29T11:49:43.824Z,98413.84
2022-10-29T11:52:21.050Z,98410.65
2022-10-29T11:55:19.580Z,98405.12
2022-10-29T11:57:53.213Z,98405.47
2022-10-29T12:00:24.029Z,98411.77
2022-10-29T12:03:08.719Z,98405.81
2022-10-29T12:05:56.029Z,98401.41
2022-10-29T12:08:40.863Z,98399.68
2022-10-29T12:11:42.983Z,98395.83
2022-10-29T12:14:39.685Z,98390.72
2022-10-29T12:17:24.966Z,98395.91
2022-10-29T12:20:04.054Z,98394.39
2022-10-29T12:22:40.084Z,98390.73
2022-10-29T12:25:27.851Z,98388.25
2022-10-29T12:28:14.656Z,98389.03
2022-10-29T12:30:47.766Z,98389.88
2022-10-29T12:33:26.303Z,98390.45
2022-10-29T12:38:40.449Z,98381.94
2022-10-29T12:41:25.399Z,98380.57
2022-10-29T12:44:01.464Z,98381.77
2022-10-29T12:46:46.566Z,98370.37
2022-10-29T12:49:32.264Z,98372.73
2022-10-29T12:52:34.848Z,98367.36
2022-10-29T12:55:06.510Z,98366.44
2022-10-29T12:57:35.598Z,98366.94
2022-10-29T13:00:33.169Z,98359.67
2022-10-29T13:03:01.236Z,98364.77
2022-10-29T13:05:37.145Z,98361.87
2022-10-29T13:08:10.423Z,98358.98
2022-10-29T13:10:51.316Z,98352.99
2022-10-29T13:13:25.126Z,98347.38
2022-10-29T13:16:19.043Z,98358.45
2022-10-29T13:18:52.702Z,98351.10
2022-10-29T13:22:00.354Z,98348.92
2022-10-29T13:24:30.473Z,98348.47
2022-10-29T13:27:21.725Z,98348.09
2022-10-29T13:30:15.721Z,98342.77
2022-10-29T13:32:43.752Z,98338.19
2022-10-29T13:35:29.432Z,98336.28
2022-10-29T13:38:15.152Z,98335.73
2022-10-29T13:41:08.946Z,98332.95
2022-10-29T13:43:39.595Z,98333.32
2022-10-29T13:46:22.914Z,98325.06
2022-10-29T13:48:53.153Z,98325.52
2022-10-29T13:51:29.529Z,98320.11
2022-10-29T13:54:18.466Z,98318.00
2022-10-29T13:56:51.771Z,98317.57
2022-10-29T13:59:37.105Z,98319.59
2022-10-29T14:02:25.275Z,98318.04
2022-10-29T14:04:58.283Z,98311.05
2022-10-29T14:07:44.806Z,98305.42
2022-10-29T14:10:41.055Z,98304.87
2022-10-29T14:13:32.618Z,98305.58
2022-10-29T14:16:08.496Z,98304.59
2022-10-29T14:18:44.974Z,98307.47
2022-10-29T14:21:25.439Z,98308.52
2022-10-29T14:24:08.714Z,98304.56
2022-10-29T14:26:40.126Z,98301.83
2022-10-29T14:29:24.665Z,98296.07
2022-10-29T14:32:22.815Z,98293.61
2022-10-29T14:34:51.762Z,98293.50
2022-10-29T14:37:30.764Z,98294.41
2022-10-29T14:40:02.502Z,98298.16
2022-10-29T14:42:38.944Z,98295.45
2022-10-29T14:45:18.549Z,98291.48
2022-10-29T14:47:54.643Z,98296.02
2022-10-29T14:50:26.459Z,98297.27
2022-10-29T14:53:11.314Z,98293.44
2022-10-29T14:55:43.946Z,98295.37
2022-10-29T14:58:15.896Z,98304.08
2022-10-29T15:00:59.389Z,98304.64
2022-10-29T15:03:30.607Z,98306.91
2022-10-29T15:06:21.455Z,98306.44
2022-10-29T15:09:00.750Z,98308.37
2022-10-29T15:11:41.838Z,98303.14
2022-10-29T15:14:38.209Z,98302.32
2022-10-29T15:17:15.056Z,98306.25
2022-10-29T15:19:45.826Z,98307.81
2022-10-29T15:22:22.865Z,98302.69
2022-10-29T15:24:52.335Z,98303.77
2022-10-29T15:27:21.422Z,98305.40
2022-10-29T15:29:49.601Z,98300.95
2022-10-29T15:32:18.415Z,98309.91
2022-10-29T15:34:56.126Z,98309.16
2022-10-29T15:37:34.672Z,98309.83
2022-10-29T15:40:11.615Z,98320.24
2022-10-29T15:42:39.627Z,98319.91
2022-10-29T15:45:23.825Z,98321.41
2022-10-29T15:48:02.258Z,98323.13
2022-10-29T15:50:42.568Z,98314.92
2022-10-29T15:53:15.048Z,98323.39
2022-10-29T15:55:44.970Z,98319.69
2022-10-29T15:58:17.610Z,98321.87
2022-10-29T16:00:45.680Z,98327.28
2022-10-29T16:03:23.073Z,98316.50
2022-10-29T16:05:58.613Z,98317.55
2022-10-29T16:08:46.487Z,98316.96
2022-10-29T16:11:19.520Z,98319.77
2022-10-29T16:13:54.643Z,98319.30
2022-10-29T16:16:22.903Z,98315.57
2022-10-29T16:18:51.495Z,98318.59
2022-10-29T16:21:22.727Z,98317.48
2022-10-29T16:23:51.329Z,98327.17
2022-10-29T16:26:22.996Z,98332.80
2022-10-29T16:28:54.118Z,98338.11
2022-10-29T16:31:26.556Z,98334.30
2022-10-29T16:33:57.796Z,98332.91
2022-10-29T16:36:25.663Z,98335.05
2022-10-29T16:38:53.516Z,98331.78
2022-10-29T16:41:21.283Z,98328.48
2022-10-29T16:43:49.113Z,98328.70
2022-10-29T16:46:16.808Z,98331.06
2022-10-29T16:48:45.106Z,98331.27
2022-10-29T16:51:12.901Z,98331.75
2022-10-29T16:53:40.821Z,98336.00
2022-10-29T16:56:09.302Z,98331.14
2022-10-29T16:58:37.231Z,98333.78
2022-10-29T17:01:07.935Z,98333.66
2022-10-29T17:03:37.724Z,98337.89
2022-10-29T17:06:08.789Z,98341.58
2022-10-29T17:08:37.701Z,98340.72
2022-10-29T17:11:10.092Z,98339.33
2022-10-29T17:13:41.375Z,98339.75
2022-10-29T17:16:15.732Z,98339.37
2022-10-29T17:18:47.178Z,98340.03
2022-10-29T17:21:16.076Z,98333.25
2022-10-29T17:23:45.957Z,98338.50
2022-10-29T17:26:14.829Z,98333.25
2022-10-29T17:28:43.353Z,98335.20
2022-10-29T17:31:11.310Z,98333.95
2022-10-29T17:33:39.071Z,98331.89
2022-10-29T17:36:11.386Z,98332.97
2022-10-29T17:38:39.297Z,98325.77
2022-10-29T17:41:07.255Z,98330.41
2022-10-29T17:43:35.579Z,98332.34
2022-10-29T17:46:04.102Z,98330.49
2022-10-29T17:48:34.290Z,98332.75
2022-10-29T17:51:02.989Z,98330.94
2022-10-29T17:53:33.213Z,98326.16
2022-10-29T17:56:01.447Z,98325.09
2022-10-29T17:58:30.606Z,98320.58
2022-10-29T18:01:09.098Z,98317.38
2022-10-29T18:03:37.210Z,98321.18
2022-10-29T18:06:08.591Z,98313.16
2022-10-29T18:08:41.418Z,98304.58
2022-10-29T18:11:19.602Z,98308.37
2022-10-29T18:13:48.969Z,98307.34
2022-10-29T18:16:20.119Z,98307.39
2022-10-29T18:19:01.951Z,98313.34
2022-10-29T18:21:26.123Z,98310.45
2022-10-29T18:23:56.459Z,98313.19
2022-10-29T18:26:30.184Z,98314.89
2022-10-29T18:29:00.903Z,98309.55
2022-10-29T18:31:31.102Z,98301.84
2022-10-29T18:34:03.949Z,98302.64
2022-10-29T18:36:32.324Z,98298.12
2022-10-29T18:39:00.459Z,98296.82
2022-10-29T18:41:28.147Z,98307.89
2022-10-29T18:43:56.741Z,98305.99
2022-10-29T18:46:25.128Z,98306.78
2022-10-29T18:48:53.514Z,98311.06
2022-10-29T18:51:25.532Z,98315.88
2022-10-29T18:53:57.383Z,98299.75
2022-10-29T18:56:27.804Z,98296.23
2022-10-29T18:58:56.877Z,98303.98
2022-10-29T19:01:33.446Z,98302.40
2022-10-29T19:04:04.737Z,98297.88
2022-10-29T19:06:36.118Z,98302.75
2022-10-29T19:09:07.877Z,98298.52
2022-10-29T19:11:36.286Z,98299.16
2022-10-29T19:14:07.946Z,98303.34
2022-10-29T19:16:35.757Z,98308.56
2022-10-29T19:19:11.157Z,98300.38
2022-10-29T19:21:39.073Z,98300.97
2022-10-29T19:24:08.140Z,98295.88
2022-10-29T19:26:36.011Z,98297.84
2022-10-29T19:29:05.528Z,98297.84
2022-10-29T19:31:35.518Z,98295.15
2022-10-29T19:34:05.716Z,98297.02
2022-10-29T19:36:35.192Z,98301.87
2022-10-29T19:39:04.100Z,98297.84
2022-10-29T19:41:32.291Z,98290.06
2022-10-29T19:44:01.903Z,98282.50
2022-10-29T19:46:30.635Z,98283.06
2022-10-29T19:48:58.766Z,98292.95
2022-10-29T19:51:27.040Z,98287.33
2022-10-29T19:53:56.685Z,98295.43
2022-10-29T19:56:24.331Z,98293.09
2022-10-29T19:58:51.873Z,98291.23
2022-10-29T20:01:19.666Z,98288.07
2022-10-29T20:03:47.944Z,98292.93
2022-10-29T20:06:17.100Z,98296.72
2022-10-29T20:08:44.897Z,98298.89
2022-10-29T20:11:12.474Z,98298.66
2022-10-29T20:13:40.445Z,98298.96
2022-10-29T20:16:18.217Z,98298.20
2022-10-29T20:18:46.902Z,98297.94
2022-10-29T20:21:15.670Z,98304.41
2022-10-29T20:23:44.531Z,98306.06
2022-10-29T20:26:12.721Z,98310.92
2022-10-29T20:28:41.025Z,98312.30
2022-10-29T20:31:29.780Z,98315.84
2022-10-29T20:33:58.474Z,98306.52
2022-10-29T20:36:29.856Z,98303.93
2022-10-29T20:38:58.253Z,98305.31
2022-10-29T20:41:26.614Z,98314.22
2022-10-29T20:43:56.812Z,98313.74
2022-10-29T20:46:25.973Z,98299.07
2022-10-29T20:48:53.895Z,98297.80
2022-10-29T20:51:22.542Z,98302.92
2022-10-29T20:53:51.940Z,98300.82
2022-10-29T20:56:22.261Z,98295.79
2022-10-29T20:58:49.971Z,98298.27
2022-10-29T21:01:20.454Z,98292.99
2022-10-29T21:03:52.049Z,98293.61
2022-10-29T21:06:20.362Z,98290.70
2022-10-29T21:08:50.366Z,98289.64
2022-10-29T21:11:20.363Z,98298.24
2022-10-29T21:13:48.565Z,98291.05
2022-10-29T21:16:22.428Z,98295.89
2022-10-29T21:18:54.160Z,98293.78
2022-10-29T21:21:22.710Z,98294.67
2022-10-29T21:23:50.840Z,98293.36
2022-10-29T21:26:21.748Z,98293.11
2022-10-29T21:28:50.912Z,98290.73
2022-10-29T21:31:19.816Z,98293.42
2022-10-29T21:33:52.472Z,98287.23
2022-10-29T21:36:20.983Z,98281.86
2022-10-29T21:38:48.725Z,98279.48
2022-10-29T21:41:17.676Z,98280.58
2022-10-29T21:43:45.599Z,98276.59
2022-10-29T21:46:13.492Z,98267.23
2022-10-29T21:48:41.148Z,98269.91
2022-10-29T21:51:13.858Z,98259.21
2022-10-29T21:53:41.783Z,98261.16
2022-10-29T21:56:12.764Z,98264.42
2022-10-29T21:58:40.852Z,98261.80
2022-10-29T22:01:12.504Z,98265.57
2022-10-29T22:03:42.963Z,98258.09
2022-10-29T22:06:14.834Z,98259.77
2022-10-29T22:08:43.121Z,98259.00
2022-10-29T22:11:12.280Z,98252.36
2022-10-29T22:13:40.035Z,98254.77
2022-10-29T22:16:09.014Z,98248.61
2022-10-29T22:18:37.643Z,98241.98
2022-10-29T22:21:15.388Z,98248.39
2022-10-29T22:23:50.322Z,98244.67
2022-10-29T22:26:20.285Z,98242.56
2022-10-29T22:28:48.357Z,98239.09
2022-10-29T22:31:18.372Z,98233.75
2022-10-29T22:33:46.624Z,98236.46
2022-10-29T22:36:24.769Z,98230.31
2022-10-29T22:38:55.630Z,98235.18
2022-10-29T22:41:25.200Z,98235.18
2022-10-29T22:43:53.544Z,98226.31
2022-10-29T22:46:22.114Z,98227.16
2022-10-29T22:48:49.975Z,98228.01
2022-10-29T22:51:21.841Z,98226.67
2022-10-29T22:53:50.879Z,98229.12
2022-10-29T22:56:25.135Z,98229.97
2022-10-29T22:58:53.562Z,98231.06
2022-10-29T23:01:26.125Z,98228.69
2022-10-29T23:03:53.985Z,98231.42
2022-10-29T23:06:23.901Z,98233.82
2022-10-29T23:08:53.343Z,98234.94
2022-10-29T23:11:24.970Z,98234.69
2022-10-29T23:13:58.253Z,98229.11
2022-10-29T23:16:29.340Z,98235.34
2022-10-29T23:19:01.014Z,98234.02
2022-10-29T23:21:29.254Z,98231.36
2022-10-29T23:23:57.118Z,98225.52
2022-10-29T23:26:25.783Z,98226.57
2022-10-29T23:28:53.554Z,98214.82
2022-10-29T23:31:24.175Z,98217.25
2022-10-29T23:33:54.553Z,98215.63
2022-10-29T23:36:24.074Z,98208.44
2022-10-29T23:38:59.387Z,98206.58
2022-10-29T23:41:29.944Z,98210.89
2022-10-29T23:43:58.036Z,98211.47
2022-10-29T23:46:25.724Z,98212.58
2022-10-29T23:48:53.465Z,98205.92
2022-10-29T23:51:21.549Z,98205.97
2022-10-29T23:53:53.152Z,98204.66
2022-10-29T23:56:19.574Z,98200.94
2022-10-29T23:58:47.501Z,98197.98
